Time;durP1;ratioP1;P1;durP2;ratioP2;P2;SDS_P1;SDS_P2;PMS_P1;PMS_P2;Temp;Humidity;BMP_temperature;BMP_pressure;BME280_temperature;BME280_humidity;BME280_pressure;Samples;Min_cycle;Max_cycle;Signal;HPM_P1;HPM_P2
2022/06/17 00:02:25;;;;;;;13.93;11.18;;;15.30;99.90;;;;;;5130207;28;20086;-89
2022/06/17 00:04:53;;;;;;;11.20;10.00;;;15.30;99.90;;;;;;5077035;28;20039;-88
2022/06/17 00:07:24;;;;;;;10.85;9.20;;;15.30;99.90;;;;;;5074761;28;20035;-89
2022/06/17 00:09:53;;;;;;;13.77;10.48;;;15.30;99.90;;;;;;5092787;28;20048;-89
2022/06/17 00:12:19;;;;;;;11.52;10.32;;;15.30;99.90;;;;;;5089219;28;20050;-89
2022/06/17 00:17:31;;;;;;;14.73;10.60;;;15.30;99.90;;;;;;5109321;28;20058;-88
2022/06/17 00:20:13;;;;;;;;;;;;;;;;;;;;;
2022/06/17 00:22:44;;;;;;;10.43;9.32;;;15.30;99.90;;;;;;5107478;28;20043;-89
2022/06/17 00:25:32;;;;;;;14.23;10.65;;;14.50;99.90;;;;;;5090236;28;20122;-89
2022/06/17 00:28:10;;;;;;;12.50;10.88;;;15.20;99.90;;;;;;5089247;28;20057;-90
2022/06/17 00:30:44;;;;;;;11.85;10.57;;;15.30;99.90;;;;;;5103521;28;20536;-89
2022/06/17 00:33:11;;;;;;;12.77;11.27;;;15.70;99.90;;;;;;5107269;27;20047;-90
2022/06/17 00:35:44;;;;;;;12.63;11.32;;;14.80;99.90;;;;;;5090194;27;20055;-89
2022/06/17 00:38:19;;;;;;;12.60;11.32;;;15.30;99.90;;;;;;5093811;27;20426;-88
2022/06/17 00:40:46;;;;;;;12.53;11.23;;;15.20;99.90;;;;;;5089021;27;20133;-88
2022/06/17 00:43:35;;;;;;;13.23;11.82;;;15.30;99.90;;;;;;5090110;27;20062;-88
2022/06/17 00:46:27;;;;;;;14.82;12.18;;;15.30;99.90;;;;;;5085351;27;20069;-88
2022/06/17 00:49:08;;;;;;;13.60;12.30;;;15.30;99.90;;;;;;5093126;27;20100;-88
2022/06/17 00:51:54;;;;;;;13.45;11.77;;;15.90;99.90;;;;;;5096928;27;20082;-90
2022/06/17 00:55:09;;;;;;;;;;;;;;;;;;;;;
2022/06/17 00:57:47;;;;;;;14.65;13.15;;;15.20;99.90;;;;;;5112187;27;20047;-88
2022/06/17 01:00:23;;;;;;;16.92;13.05;;;14.90;99.90;;;;;;5095171;27;20108;-88
2022/06/17 01:02:57;;;;;;;15.70;12.05;;;15.10;99.90;;;;;;5096378;27;20047;-88
2022/06/17 01:05:33;;;;;;;13.93;12.52;;;15.10;99.90;;;;;;5093551;27;20050;-89
2022/06/17 01:08:04;;;;;;;13.43;12.07;;;15.10;99.90;;;;;;5090193;27;20527;-90
2022/06/17 01:10:39;;;;;;;15.18;12.93;;;15.30;99.90;;;;;;5082066;27;20381;-89
2022/06/17 01:13:11;;;;;;;13.43;12.10;;;15.00;99.90;;;;;;5098557;27;20204;-88
2022/06/17 01:15:44;;;;;;;14.35;12.85;;;15.00;99.90;;;;;;5093816;27;20050;-89
2022/06/17 01:18:15;;;;;;;13.38;11.98;;;15.00;99.90;;;;;;5095433;27;20051;-88
2022/06/17 01:20:54;;;;;;;15.25;13.55;;;15.00;99.90;;;;;;5096519;27;20047;-89
2022/06/17 01:23:22;;;;;;;13.95;12.55;;;15.00;99.90;;;;;;5068457;27;20059;-89
2022/06/17 01:25:53;;;;;;;14.80;12.65;;;15.00;99.90;;;;;;5132128;27;20066;-90
2022/06/17 01:28:18;;;;;;;14.52;13.02;;;15.10;99.90;;;;;;5099835;27;20196;-89
2022/06/17 01:31:04;;;;;;;13.57;12.18;;;14.60;99.90;;;;;;5113520;27;20484;-89
2022/06/17 01:33:41;;;;;;;14.18;12.35;;;15.10;99.90;;;;;;5082201;27;20099;-90
2022/06/17 01:36:28;;;;;;;14.07;12.68;;;15.00;99.90;;;;;;5092115;27;20074;-88
2022/06/17 01:39:00;;;;;;;13.98;12.55;;;15.00;99.90;;;;;;5088426;27;20043;-89
2022/06/17 01:41:30;;;;;;;12.98;11.57;;;15.10;99.90;;;;;;5090508;27;20081;-89
2022/06/17 01:44:19;;;;;;;13.13;11.82;;;15.00;99.90;;;;;;5111072;27;20040;-88
2022/06/17 01:46:48;;;;;;;13.82;11.57;;;15.00;99.90;;;;;;5093297;27;20480;-88
2022/06/17 01:49:19;;;;;;;12.25;10.93;;;15.00;99.90;;;;;;5105110;27;20047;-88
2022/06/17 01:52:03;;;;;;;16.23;12.05;;;15.10;99.90;;;;;;5110743;27;20130;-89
2022/06/17 01:54:40;;;;;;;12.57;11.20;;;15.10;99.90;;;;;;5093786;27;20421;-89
2022/06/17 01:57:10;;;;;;;15.70;11.85;;;15.00;99.90;;;;;;5097233;27;20452;-89
2022/06/17 01:59:47;;;;;;;12.35;11.05;;;15.80;99.90;;;;;;5093714;27;20043;-88
2022/06/17 02:02:15;;;;;;;11.25;10.13;;;15.00;99.90;;;;;;5092460;27;20055;-88
2022/06/17 02:04:46;;;;;;;11.85;10.65;;;15.10;99.90;;;;;;5094790;27;20154;-87
2022/06/17 02:07:39;;;;;;;11.77;10.57;;;15.10;99.90;;;;;;5088530;27;20047;-88
2022/06/17 02:10:05;;;;;;;11.80;10.60;;;15.10;99.90;;;;;;5109256;27;20051;-88
2022/06/17 02:12:31;;;;;;;13.55;10.07;;;15.00;99.90;;;;;;5095955;27;20049;-88
2022/06/17 02:14:57;;;;;;;13.57;10.90;;;15.00;99.90;;;;;;5095158;27;20504;-88
2022/06/17 02:17:42;;;;;;;11.30;10.15;;;14.40;99.90;;;;;;5096966;27;20138;-88
2022/06/17 02:20:14;;;;;;;13.95;10.07;;;15.00;99.90;;;;;;5100373;27;20051;-87
2022/06/17 02:22:43;;;;;;;10.07;8.63;;;15.00;99.90;;;;;;5098163;27;20039;-89
2022/06/17 02:25:19;;;;;;;10.45;9.40;;;15.00;99.90;;;;;;5093374;27;20523;-89
2022/06/17 02:27:49;;;;;;;11.25;10.05;;;15.00;99.90;;;;;;5113835;27;20043;-88
2022/06/17 02:30:18;;;;;;;11.70;10.15;;;15.00;99.90;;;;;;5099502;27;20130;-89
2022/06/17 02:32:50;;;;;;;10.45;9.32;;;15.10;99.90;;;;;;5093678;27;20348;-89
2022/06/17 02:35:45;;;;;;;10.68;9.35;;;15.10;99.90;;;;;;5077653;27;20063;-89
2022/06/17 02:38:18;;;;;;;10.95;9.75;;;15.10;99.90;;;;;;5091350;27;20039;-89
2022/06/17 02:41:00;;;;;;;10.85;9.75;;;15.10;99.90;;;;;;5091629;27;20047;-88
2022/06/17 02:43:33;;;;;;;10.80;9.65;;;15.20;99.90;;;;;;5090464;27;20133;-89
2022/06/17 02:46:14;;;;;;;11.27;9.82;;;15.20;99.90;;;;;;5109171;27;20051;-90
2022/06/17 02:49:24;;;;;;;10.82;9.77;;;15.20;99.90;;;;;;5093592;27;20047;-89
2022/06/17 02:51:53;;;;;;;13.45;10.10;;;15.20;99.90;;;;;;5089585;27;20051;-89
2022/06/17 02:54:28;;;;;;;11.32;9.95;;;15.20;99.90;;;;;;5095572;27;20124;-89
2022/06/17 02:56:57;;;;;;;11.20;9.88;;;15.20;99.90;;;;;;5092174;27;20039;-88
2022/06/17 02:59:30;;;;;;;12.18;10.02;;;15.20;99.90;;;;;;5099222;27;20030;-89
2022/06/17 03:02:19;;;;;;;12.00;10.10;;;15.10;99.90;;;;;;5114372;27;20049;-88
2022/06/17 03:04:46;;;;;;;12.43;11.10;;;14.30;99.90;;;;;;5095334;27;20054;-88
2022/06/17 03:07:25;;;;;;;11.68;10.43;;;14.50;99.90;;;;;;5095552;27;20099;-88
2022/06/17 03:09:51;;;;;;;11.25;9.95;;;15.10;99.90;;;;;;5087414;28;20567;-88
2022/06/17 03:12:25;;;;;;;14.52;9.98;;;15.00;99.90;;;;;;5089383;28;20043;-88
2022/06/17 03:15:10;;;;;;;12.75;10.32;;;16.00;99.90;;;;;;5094851;27;20504;-88
2022/06/17 03:17:40;;;;;;;10.30;9.30;;;15.00;99.90;;;;;;5107270;27;20090;-88
2022/06/17 03:20:11;;;;;;;12.82;9.90;;;15.00;99.90;;;;;;5108804;27;20062;-89
2022/06/17 03:22:41;;;;;;;11.02;10.00;;;15.10;99.90;;;;;;5092626;27;20043;-89
2022/06/17 03:25:26;;;;;;;11.07;9.98;;;15.00;99.90;;;;;;5090357;28;20131;-88
2022/06/17 03:28:14;;;;;;;11.30;10.10;;;15.00;99.90;;;;;;5086392;28;20823;-89
2022/06/17 03:30:45;;;;;;;12.27;9.38;;;15.00;99.90;;;;;;5107055;28;20047;-89
2022/06/17 03:33:20;;;;;;;11.15;9.65;;;15.00;99.90;;;;;;5094627;28;20448;-88
2022/06/17 03:35:51;;;;;;;12.40;9.73;;;15.00;99.90;;;;;;5089530;28;20081;-89
2022/06/17 03:38:33;;;;;;;11.02;9.10;;;15.00;99.90;;;;;;5091604;28;20051;-89
2022/06/17 03:41:33;;;;;;;10.88;9.10;;;15.10;99.90;;;;;;5090937;28;20158;-88
2022/06/17 03:44:13;;;;;;;10.35;9.02;;;15.10;99.90;;;;;;5107585;28;20063;-88
2022/06/17 03:46:49;;;;;;;10.32;9.20;;;15.20;99.90;;;;;;5091881;28;20063;-88
2022/06/17 03:49:43;;;;;;;10.85;8.95;;;15.20;99.90;;;;;;5091557;28;20040;-88
2022/06/17 03:52:40;;;;;;;11.10;9.35;;;15.30;99.90;;;;;;5097454;28;20542;-90
2022/06/17 03:55:17;;;;;;;10.50;9.48;;;15.30;99.90;;;;;;5114690;28;20134;-89
2022/06/17 03:57:46;;;;;;;10.05;9.05;;;15.40;99.90;;;;;;5116158;28;20416;-88
2022/06/17 04:00:20;;;;;;;10.30;8.88;;;15.40;99.90;;;;;;5110028;28;20109;-89
2022/06/17 04:02:47;;;;;;;10.23;9.05;;;15.10;99.90;;;;;;5096370;28;20083;-90
2022/06/17 04:05:23;;;;;;;10.18;9.18;;;15.50;99.90;;;;;;5092320;28;20483;-89
2022/06/17 04:07:49;;;;;;;10.63;9.60;;;15.50;99.90;;;;;;5113141;27;20039;-88
2022/06/17 04:10:20;;;;;;;10.48;8.70;;;15.60;99.90;;;;;;5099106;27;20573;-88
2022/06/17 04:12:52;;;;;;;10.70;9.60;;;15.60;99.90;;;;;;5092668;27;20051;-88
2022/06/17 04:15:46;;;;;;;10.25;9.10;;;15.60;99.90;;;;;;5098733;27;20047;-88
2022/06/17 04:18:16;;;;;;;11.15;9.00;;;15.70;99.90;;;;;;5092436;27;20059;-88
2022/06/17 04:20:54;;;;;;;11.93;10.15;;;15.70;99.90;;;;;;5093167;27;20054;-89
2022/06/17 04:23:35;;;;;;;9.43;7.40;;;15.10;99.90;;;;;;5091807;27;20043;-89
2022/06/17 04:26:21;;;;;;;10.70;9.50;;;15.80;99.90;;;;;;5090479;28;20550;-88
2022/06/17 04:28:53;;;;;;;11.57;9.05;;;15.30;99.90;;;;;;5123292;27;20043;-89
2022/06/17 04:31:24;;;;;;;10.00;9.00;;;15.90;99.90;;;;;;5111664;27;20047;-88
2022/06/17 04:33:54;;;;;;;9.95;8.95;;;15.90;99.90;;;;;;5099785;27;20039;-89
2022/06/17 04:36:29;;;;;;;10.45;9.35;;;15.90;99.90;;;;;;5124301;27;20059;-89
2022/06/17 04:39:22;;;;;;;10.50;9.50;;;16.00;99.90;;;;;;5097745;27;20051;-88
2022/06/17 04:41:51;;;;;;;10.25;9.15;;;16.00;99.90;;;;;;5102482;27;20295;-87
2022/06/17 04:44:22;;;;;;;9.77;8.77;;;16.10;99.90;;;;;;5104865;27;20134;-87
2022/06/17 04:46:53;;;;;;;10.57;9.48;;;15.70;99.90;;;;;;5065851;27;20506;-88
2022/06/17 04:49:26;;;;;;;11.65;9.73;;;16.10;99.90;;;;;;5095836;27;20104;-89
2022/06/17 04:51:57;;;;;;;11.00;9.23;;;16.20;99.90;;;;;;5091334;27;20046;-88
2022/06/17 04:54:23;;;;;;;10.05;8.90;;;16.20;99.90;;;;;;5096005;27;20048;-89
2022/06/17 04:56:51;;;;;;;9.88;8.88;;;16.20;99.90;;;;;;5093060;27;20051;-88
2022/06/17 04:59:28;;;;;;;10.05;9.05;;;16.30;99.90;;;;;;5093979;27;20138;-88
2022/06/17 05:01:58;;;;;;;10.07;8.95;;;16.40;99.90;;;;;;5093849;27;20049;-89
2022/06/17 05:04:25;;;;;;;11.43;9.45;;;16.40;99.90;;;;;;5079623;27;20047;-88
2022/06/17 05:06:51;;;;;;;9.88;8.77;;;16.50;99.90;;;;;;5108123;27;20050;-88
2022/06/17 05:09:42;;;;;;;9.85;8.82;;;16.50;99.90;;;;;;5094272;27;20047;-89
2022/06/17 05:12:26;;;;;;;11.05;9.73;;;16.50;99.90;;;;;;5089678;27;20138;-89
2022/06/17 05:14:59;;;;;;;10.43;9.43;;;16.60;99.90;;;;;;5090726;27;20118;-88
2022/06/17 05:17:25;;;;;;;10.48;9.00;;;16.60;99.90;;;;;;5094362;27;20039;-89
2022/06/17 05:19:53;;;;;;;10.07;9.02;;;16.70;99.90;;;;;;5093072;27;20054;-89
2022/06/17 05:22:34;;;;;;;10.75;9.05;;;16.70;99.90;;;;;;5112420;27;20381;-88
2022/06/17 05:25:09;;;;;;;9.88;8.60;;;16.80;99.90;;;;;;5097286;27;20043;-89
2022/06/17 05:27:37;;;;;;;10.27;9.27;;;16.50;99.90;;;;;;5074243;27;20549;-89
2022/06/17 05:30:14;;;;;;;;;;;;;;;;;;;;;
2022/06/17 05:33:05;;;;;;;10.68;9.07;;;16.90;99.90;;;;;;5111666;27;20043;-89
2022/06/17 05:35:31;;;;;;;10.38;9.38;;;16.30;99.90;;;;;;5097145;27;20138;-88
2022/06/17 05:37:57;;;;;;;9.57;8.65;;;17.00;99.90;;;;;;5097006;27;20043;-88
2022/06/17 05:40:26;;;;;;;10.45;9.30;;;17.10;99.90;;;;;;5089510;27;20051;-89
2022/06/17 05:42:54;;;;;;;9.98;8.45;;;16.40;99.90;;;;;;5096016;27;20042;-89
2022/06/17 05:45:26;;;;;;;11.43;9.15;;;17.20;99.90;;;;;;5092524;27;20044;-87
2022/06/17 05:47:54;;;;;;;10.10;8.85;;;17.30;99.90;;;;;;5113134;27;20058;-89
2022/06/17 05:50:25;;;;;;;10.05;9.05;;;17.30;99.90;;;;;;5094003;27;20036;-89
2022/06/17 05:53:03;;;;;;;10.65;9.30;;;17.40;99.90;;;;;;5094855;27;20047;-88
2022/06/17 05:55:33;;;;;;;11.20;9.07;;;17.50;99.90;;;;;;5092675;27;20457;-88
2022/06/17 05:58:20;;;;;;;13.73;9.48;;;18.40;99.90;;;;;;5094397;27;20031;-88
2022/06/17 06:00:59;;;;;;;10.70;9.57;;;17.60;99.90;;;;;;5111105;27;20126;-90
2022/06/17 06:03:44;;;;;;;12.43;9.27;;;17.60;99.90;;;;;;5092732;27;20039;-89
2022/06/17 06:06:12;;;;;;;10.32;9.32;;;17.70;99.90;;;;;;5110468;27;20058;-89
2022/06/17 06:08:38;;;;;;;11.13;9.65;;;17.80;99.90;;;;;;5102654;27;20047;-91
2022/06/17 06:11:05;;;;;;;10.25;9.20;;;17.90;99.90;;;;;;5109188;27;20043;-90
2022/06/17 06:13:34;;;;;;;10.13;9.23;;;18.00;99.90;;;;;;5110841;27;20070;-89
2022/06/17 06:16:08;;;;;;;11.15;8.52;;;18.10;99.90;;;;;;5098315;27;20051;-89
2022/06/17 06:18:55;;;;;;;10.07;8.98;;;18.10;99.90;;;;;;5095454;28;20056;-90
2022/06/17 06:21:21;;;;;;;;;;;18.30;99.90;;;;;;5087492;27;20051;-89
2022/06/17 06:23:56;;;;;;;9.55;8.48;;;18.40;99.90;;;;;;5096456;27;19926;-90
2022/06/17 06:26:26;;;;;;;11.43;7.93;;;18.20;99.90;;;;;;5066694;27;20050;-90
2022/06/17 06:29:32;;;;;;;9.52;7.53;;;18.60;99.90;;;;;;5094782;27;20043;-88
2022/06/17 06:32:04;;;;;;;9.07;7.55;;;18.70;99.90;;;;;;5092994;27;20049;-89
2022/06/17 06:35:02;;;;;;;9.38;7.15;;;18.80;99.90;;;;;;5081303;28;20058;-90
2022/06/17 06:37:35;;;;;;;7.63;6.50;;;18.90;99.90;;;;;;5081717;27;20039;-89
2022/06/17 06:40:05;;;;;;;8.05;6.07;;;19.00;99.90;;;;;;5071322;27;20054;-90
2022/06/17 06:45:36;;;;;;;8.52;6.30;;;18.70;99.90;;;;;;5100211;27;20047;-90
2022/06/17 06:48:08;;;;;;;9.18;6.25;;;19.50;99.90;;;;;;5089814;27;20504;-90
2022/06/17 06:50:48;;;;;;;;;;;;;;;;;;;;;
2022/06/17 06:53:17;;;;;;;7.47;5.70;;;19.50;99.90;;;;;;5118241;27;20114;-90
2022/06/17 06:55:50;;;;;;;7.50;5.68;;;19.60;99.90;;;;;;5106252;27;20042;-89
2022/06/17 06:58:21;;;;;;;7.47;5.43;;;19.70;99.90;;;;;;5087541;27;20066;-89
2022/06/17 07:00:58;;;;;;;6.03;5.43;;;19.70;99.90;;;;;;5109638;27;20039;-90
2022/06/17 07:03:53;;;;;;;7.25;5.30;;;19.80;99.90;;;;;;5081212;27;20047;-90
2022/06/17 07:06:47;;;;;;;7.00;6.18;;;19.90;99.90;;;;;;5098602;27;20044;-89
2022/06/17 07:09:13;;;;;;;8.75;5.93;;;20.00;99.90;;;;;;5084905;28;20059;-90
2022/06/17 07:11:49;;;;;;;;;;;;;;;;;;;;;
2022/06/17 07:14:18;;;;;;;5.80;4.88;;;20.20;99.90;;;;;;5120059;28;20061;-90
2022/06/17 07:16:52;;;;;;;5.45;4.82;;;19.80;99.90;;;;;;5078130;28;20078;-90
2022/06/17 07:19:37;;;;;;;6.70;4.68;;;20.30;99.90;;;;;;5095809;28;20088;-89
2022/06/17 07:22:05;;;;;;;5.63;4.75;;;20.40;99.90;;;;;;5078029;27;20050;-91
2022/06/17 07:24:39;;;;;;;6.35;4.75;;;20.50;99.90;;;;;;5075629;28;20054;-89
2022/06/17 07:27:07;;;;;;;6.85;4.80;;;21.20;99.90;;;;;;5067047;28;20042;-90
2022/06/17 07:29:54;;;;;;;5.90;5.20;;;20.60;99.90;;;;;;5097112;28;20043;-89
2022/06/17 07:32:19;;;;;;;;;;;20.70;99.90;;;;;;5102751;28;20485;-89
2022/06/17 07:34:45;;;;;;;6.65;4.38;;;20.70;99.90;;;;;;5082484;28;19923;-89
2022/06/17 07:40:07;;;;;;;5.38;4.43;;;21.30;99.90;;;;;;5101908;28;20071;-90
2022/06/17 07:42:45;;;;;;;6.55;4.53;;;21.00;99.90;;;;;;5104588;27;20111;-89
2022/06/17 07:45:29;;;;;;;6.47;4.03;;;21.90;99.90;;;;;;5113619;27;20047;-87
2022/06/17 07:47:59;;;;;;;5.72;4.05;;;22.10;99.90;;;;;;5104531;28;20062;-89
2022/06/17 07:50:30;;;;;;;5.22;3.63;;;22.20;99.90;;;;;;5116526;28;20051;-89
2022/06/17 07:53:07;;;;;;;6.38;3.97;;;22.20;99.90;;;;;;5095372;28;20480;-89
2022/06/17 07:55:33;;;;;;;6.40;4.20;;;22.20;99.90;;;;;;5094788;28;20055;-88
2022/06/17 07:58:08;;;;;;;6.50;3.78;;;22.20;99.90;;;;;;5096496;28;20047;-88
2022/06/17 08:03:29;;;;;;;4.85;3.25;;;22.40;99.90;;;;;;5102407;28;20051;-90
2022/06/17 08:06:08;;;;;;;4.88;3.33;;;22.50;99.90;;;;;;5099088;28;20049;-88
2022/06/17 08:09:07;;;;;;;;;;;;;;;;;;;;;
2022/06/17 08:11:36;;;;;;;4.53;3.08;;;22.60;99.90;;;;;;5107988;28;20505;-88
2022/06/17 08:14:05;;;;;;;4.78;3.50;;;22.60;99.90;;;;;;5078129;28;20047;-89
2022/06/17 08:16:31;;;;;;;4.57;3.10;;;22.70;99.90;;;;;;5073471;28;20165;-89
2022/06/17 08:19:07;;;;;;;4.05;3.20;;;22.70;99.90;;;;;;5092829;28;20048;-89
2022/06/17 08:21:41;;;;;;;5.57;3.90;;;22.70;99.90;;;;;;5088791;28;20405;-89
2022/06/17 08:24:18;;;;;;;4.53;3.40;;;22.40;99.90;;;;;;5094282;28;20123;-88
2022/06/17 08:26:44;;;;;;;4.95;3.83;;;22.70;99.90;;;;;;5085410;28;20040;-88
2022/06/17 08:29:17;;;;;;;4.82;3.63;;;22.70;99.90;;;;;;5124748;27;20050;-88
2022/06/17 08:31:43;;;;;;;4.93;3.55;;;22.80;99.90;;;;;;5113290;28;20039;-87
2022/06/17 08:34:12;;;;;;;7.88;4.28;;;22.90;99.90;;;;;;5093294;28;20044;-89
2022/06/17 08:37:13;;;;;;;6.28;3.92;;;23.00;99.90;;;;;;5089261;28;20444;-89
2022/06/17 08:40:11;;;;;;;5.00;3.63;;;23.00;99.90;;;;;;5092656;28;20946;-88
2022/06/17 08:46:59;;;;;;;5.10;3.58;;;23.60;99.90;;;;;;5117352;27;20065;-88
2022/06/17 08:49:54;;;;;;;5.30;3.80;;;23.30;99.90;;;;;;5098810;27;20104;-87
2022/06/17 08:52:53;;;;;;;6.82;3.88;;;23.10;99.90;;;;;;5117277;27;20059;-88
2022/06/17 08:55:24;;;;;;;5.47;3.65;;;23.40;99.90;;;;;;5115467;27;20137;-89
2022/06/17 08:58:12;;;;;;;5.30;3.97;;;23.40;99.90;;;;;;5097127;27;20152;-88
2022/06/17 09:01:25;;;;;;;6.30;3.90;;;23.60;99.90;;;;;;5091796;27;20484;-88
2022/06/17 09:04:41;;;;;;;;;;;;;;;;;;;;;
2022/06/17 09:08:02;;;;;;;7.05;3.80;;;24.50;99.90;;;;;;5112296;27;20075;-88
2022/06/17 09:10:39;;;;;;;6.15;3.45;;;24.80;99.90;;;;;;5074999;27;20051;-90
2022/06/17 09:14:28;;;;;;;5.43;3.67;;;25.20;99.90;;;;;;5117292;27;20039;-89
2022/06/17 09:17:06;;;;;;;;;;;;;;;;;;;;;
2022/06/17 09:20:17;;;;;;;5.57;3.33;;;26.00;99.90;;;;;;5131365;27;20273;-90
2022/06/17 09:23:09;;;;;;;;;;;;;;;;;;;;;
2022/06/17 09:26:02;;;;;;;7.10;3.45;;;26.40;99.90;;;;;;5142941;27;20096;-87
2022/06/17 09:32:05;;;;;;;9.00;3.67;;;26.70;98.20;;;;;;5093815;27;19919;-89
2022/06/17 09:34:46;;;;;;;3.78;3.00;;;26.80;99.20;;;;;;5101096;27;20043;-88
2022/06/17 09:38:06;;;;;;;;;;;;;;;;;;;;;
2022/06/17 09:40:47;;;;;;;6.47;3.08;;;27.10;97.90;;;;;;5114917;27;20055;-89
2022/06/17 09:43:28;;;;;;;5.63;3.30;;;27.00;98.50;;;;;;5098495;27;20554;-89
2022/06/17 09:46:34;;;;;;;5.35;3.28;;;26.90;98.40;;;;;;5095546;27;20391;-89
2022/06/17 09:49:10;;;;;;;6.03;3.05;;;26.90;98.30;;;;;;5086997;28;20056;-89
2022/06/17 09:52:02;;;;;;;;;;;27.00;98.60;;;;;;5085052;28;20066;-90
2022/06/17 09:54:49;;;;;;;4.88;3.03;;;27.30;98.60;;;;;;5070571;28;20381;-89
2022/06/17 09:57:42;;;;;;;5.18;3.55;;;27.50;98.60;;;;;;5101550;28;20029;-89
2022/06/17 10:00:20;;;;;;;5.82;3.90;;;27.50;98.20;;;;;;5079742;28;20052;-88
2022/06/17 10:02:52;;;;;;;4.80;3.50;;;27.60;97.60;;;;;;5075623;28;20052;-90
2022/06/17 10:06:01;;;;;;;5.43;3.58;;;27.70;97.30;;;;;;5054831;28;20043;-90
2022/06/17 10:08:32;;;;;;;6.05;4.13;;;27.80;97.00;;;;;;5053253;28;20087;-91
2022/06/17 10:11:38;;;;;;;7.60;3.58;;;27.70;97.30;;;;;;5092431;28;20047;-89
2022/06/17 10:20:45;;;;;;;7.25;4.47;;;28.20;97.00;;;;;;5082560;28;20073;-90
2022/06/17 10:23:24;;;;;;;6.28;3.85;;;28.50;96.10;;;;;;5067971;28;20047;-89
2022/06/17 10:26:08;;;;;;;;;;;;;;;;;;;;;
2022/06/17 10:28:46;;;;;;;5.68;3.88;;;29.00;95.30;;;;;;5089736;28;20036;-91
2022/06/17 10:31:23;;;;;;;4.82;3.92;;;29.20;94.80;;;;;;5069237;28;20051;-90
2022/06/17 10:33:57;;;;;;;5.10;3.67;;;29.30;94.10;;;;;;5068319;28;20127;-90
2022/06/17 10:36:44;;;;;;;5.00;3.55;;;29.50;93.90;;;;;;5056671;28;20049;-89
2022/06/17 10:39:17;;;;;;;5.47;3.60;;;29.70;93.20;;;;;;5085894;28;20059;-91
2022/06/17 10:41:58;;;;;;;;;;;;;;;;;;;;;
2022/06/17 10:44:54;;;;;;;5.55;3.70;;;29.90;91.40;;;;;;5071615;28;20048;-90
2022/06/17 10:48:00;;;;;;;6.80;4.70;;;30.00;90.20;;;;;;5093484;28;20048;-89
2022/06/17 10:50:42;;;;;;;7.13;4.18;;;30.20;90.00;;;;;;5109204;28;20043;-89
2022/06/17 10:53:28;;;;;;;6.55;4.40;;;30.30;89.60;;;;;;5084057;28;20067;-90
2022/06/17 10:56:11;;;;;;;;;;;;;;;;;;;;;
2022/06/17 10:59:13;;;;;;;6.85;3.78;;;30.70;87.40;;;;;;5103592;28;20043;-91
2022/06/17 11:02:16;;;;;;;7.00;4.00;;;30.80;84.00;;;;;;5119955;28;20052;-92
2022/06/17 11:04:59;;;;;;;;;;;;;;;;;;;;;
2022/06/17 11:07:51;;;;;;;5.30;3.60;;;30.90;84.30;;;;;;5110640;28;20044;-90
2022/06/17 11:10:33;;;;;;;5.97;3.63;;;30.90;82.70;;;;;;5090929;28;20047;-91
2022/06/17 11:13:42;;;;;;;5.60;3.85;;;31.10;81.50;;;;;;5074778;28;20051;-91
2022/06/17 11:16:25;;;;;;;8.98;4.95;;;31.30;79.90;;;;;;5090422;28;20054;-91
2022/06/17 11:19:03;;;;;;;5.68;3.90;;;31.30;78.30;;;;;;5072139;28;20050;-89
2022/06/17 11:21:50;;;;;;;7.53;3.83;;;31.20;78.40;;;;;;5086373;28;20126;-88
2022/06/17 11:24:28;;;;;;;6.65;4.05;;;31.40;78.00;;;;;;5106067;28;20055;-89
2022/06/17 11:27:28;;;;;;;6.38;3.17;;;31.40;76.20;;;;;;5085108;28;20047;-90
2022/06/17 11:30:19;;;;;;;5.05;3.10;;;31.40;75.80;;;;;;5106130;28;20059;-90
2022/06/17 11:32:56;;;;;;;7.32;3.70;;;31.50;75.90;;;;;;5083992;28;20051;-90
2022/06/17 11:35:36;;;;;;;5.20;3.17;;;31.30;74.50;;;;;;5106818;28;20079;-90
2022/06/17 11:38:16;;;;;;;6.85;3.50;;;31.10;74.20;;;;;;5090478;28;20480;-88
2022/06/17 11:44:26;;;;;;;;;;;;;;;;;;;;;
2022/06/17 11:47:01;;;;;;;4.90;2.78;;;30.90;75.40;;;;;;5098869;28;20049;-89
2022/06/17 11:49:47;;;;;;;;;;;;;;;;;;;;;
2022/06/17 11:52:42;;;;;;;4.00;2.42;;;31.50;74.60;;;;;;5086446;28;20049;-91
2022/06/17 11:55:22;;;;;;;7.20;2.90;;;31.60;74.60;;;;;;5069288;28;20047;-90
2022/06/17 11:58:10;;;;;;;5.13;2.70;;;31.80;73.50;;;;;;5069937;28;20052;-89
2022/06/17 12:01:13;;;;;;;6.80;2.95;;;32.00;72.30;;;;;;5067480;28;20043;-89
2022/06/17 12:03:48;;;;;;;7.60;3.00;;;31.80;72.30;;;;;;5070078;28;20047;-90
2022/06/17 12:07:03;;;;;;;4.63;2.80;;;31.80;71.60;;;;;;5075701;28;20539;-89
2022/06/17 12:09:40;;;;;;;4.35;2.40;;;31.80;70.80;;;;;;5051383;28;20059;-89
2022/06/17 12:12:13;;;;;;;5.88;2.88;;;31.80;71.10;;;;;;5074890;28;20048;-90
2022/06/17 12:15:13;;;;;;;;;;;;;;;;;;;;;
2022/06/17 12:17:50;;;;;;;5.75;2.72;;;31.50;68.20;;;;;;5084297;28;20056;-91
2022/06/17 12:21:13;;;;;;;;;;;;;;;;;;;;;
2022/06/17 12:24:32;;;;;;;4.93;3.22;;;31.20;71.00;;;;;;5073868;28;20052;-89
2022/06/17 12:27:36;;;;;;;;;;;;;;;;;;;;;
2022/06/17 12:30:29;;;;;;;7.30;3.65;;;31.00;68.90;;;;;;5087543;28;20055;-90
2022/06/17 12:33:22;;;;;;;6.90;3.90;;;30.90;71.30;;;;;;5095134;28;20076;-90
2022/06/17 12:36:03;;;;;;;7.30;3.42;;;30.70;70.80;;;;;;5077808;28;20101;-89
2022/06/17 12:38:50;;;;;;;6.40;3.38;;;30.60;72.00;;;;;;5088041;28;20401;-89
2022/06/17 12:41:51;;;;;;;5.43;3.80;;;30.50;72.00;;;;;;5090525;28;20064;-90
2022/06/17 12:44:45;;;;;;;4.88;3.35;;;30.50;71.90;;;;;;5077958;28;20051;-90
2022/06/17 12:47:50;;;;;;;4.65;3.30;;;30.50;72.00;;;;;;5080803;28;20047;-90
2022/06/17 12:54:02;;;;;;;;;;;;;;;;;;;;;
2022/06/17 12:57:02;;;;;;;5.13;3.00;;;30.10;71.90;;;;;;5108285;28;20051;-90
2022/06/17 13:00:08;;;;;;;6.45;3.40;;;30.10;74.20;;;;;;5105902;28;20066;-89
2022/06/17 13:03:21;;;;;;;6.05;3.00;;;30.10;72.60;;;;;;5092015;28;20047;-90
2022/06/17 13:06:01;;;;;;;5.20;2.85;;;30.50;73.00;;;;;;5086641;28;20052;-89
2022/06/17 13:09:24;;;;;;;6.57;2.90;;;30.70;70.60;;;;;;5093390;28;20581;-89
2022/06/17 13:12:06;;;;;;;5.90;2.83;;;31.30;71.10;;;;;;5071724;28;20059;-90
2022/06/17 13:15:18;;;;;;;;;;;;;;;;;;;;;
2022/06/17 13:18:17;;;;;;;5.72;2.95;;;31.50;68.70;;;;;;5111643;28;20048;-90
2022/06/17 13:21:09;;;;;;;3.92;2.15;;;31.60;68.80;;;;;;5063319;28;20048;-88
2022/06/17 13:23:56;;;;;;;;;;;;;;;;;;;;;
2022/06/17 13:30:11;;;;;;;5.70;2.75;;;31.90;66.30;;;;;;5005586;28;20049;-91
2022/06/17 13:33:06;;;;;;;4.10;2.38;;;32.10;65.80;;;;;;5020086;28;20065;-90
2022/06/17 13:36:15;;;;;;;4.85;2.08;;;32.10;65.50;;;;;;5007506;28;21244;-90
2022/06/17 13:39:09;;;;;;;5.15;2.33;;;32.40;65.70;;;;;;5027738;28;20056;-91
2022/06/17 13:41:52;;;;;;;5.55;2.17;;;32.30;63.40;;;;;;5100599;28;20051;-90
2022/06/17 13:44:43;;;;;;;4.63;2.08;;;32.20;64.80;;;;;;5102986;28;20055;-91
2022/06/17 13:47:41;;;;;;;6.70;2.40;;;32.20;64.00;;;;;;5109549;28;20044;-90
2022/06/17 13:51:03;;;;;;;3.65;2.15;;;32.30;64.90;;;;;;5130738;28;20105;-91
2022/06/17 14:02:13;;;;;;;;;;;;;;;;;;;;;
2022/06/17 14:05:15;;;;;;;3.85;1.85;;;31.70;64.30;;;;;;4955242;28;20055;-90
2022/06/17 14:12:20;;;;;;;4.57;2.05;;;31.20;64.40;;;;;;5060552;28;20116;-89
2022/06/17 14:19:07;;;;;;;4.22;2.30;;;30.60;65.10;;;;;;5017668;28;20055;-92
2022/06/17 14:25:15;;;;;;;6.35;2.08;;;30.10;66.60;;;;;;5112521;28;20093;-93
2022/06/17 14:31:07;;;;;;;4.00;1.95;;;29.70;67.20;;;;;;5129326;28;20044;-93
2022/06/17 14:34:18;;;;;;;;;;;;;;;;;;;;;
2022/06/17 14:37:27;;;;;;;4.20;2.00;;;29.50;68.50;;;;;;5130604;28;20050;-92
2022/06/17 14:40:03;;;;;;;3.25;1.80;;;29.40;69.10;;;;;;5062398;28;20128;-92
2022/06/17 14:43:11;;;;;;;4.20;1.70;;;29.30;69.10;;;;;;5119230;28;20094;-91
2022/06/17 14:46:02;;;;;;;3.85;1.98;;;29.30;69.20;;;;;;5112573;28;20029;-93
2022/06/17 14:48:39;;;;;;;5.07;2.17;;;29.20;69.70;;;;;;5112251;28;20048;-89
2022/06/17 14:51:42;;;;;;;4.72;1.90;;;29.20;69.70;;;;;;5111241;28;20102;-89
2022/06/17 14:54:21;;;;;;;;;;;;;;;;;;;;;
2022/06/17 14:57:22;;;;;;;3.88;1.85;;;29.30;70.10;;;;;;5108736;28;20059;-88
2022/06/17 15:00:03;;;;;;;3.35;1.67;;;29.40;70.10;;;;;;5093952;28;20129;-88
2022/06/17 15:02:56;;;;;;;3.08;1.70;;;29.50;69.60;;;;;;5090086;28;20056;-89
2022/06/17 15:05:36;;;;;;;4.25;2.03;;;29.60;69.70;;;;;;5071460;28;20051;-88
2022/06/17 15:08:17;;;;;;;3.20;1.73;;;29.80;69.20;;;;;;5088259;28;20095;-89
2022/06/17 15:11:40;;;;;;;3.55;1.60;;;30.10;69.60;;;;;;5086321;28;20054;-89
2022/06/17 15:14:42;;;;;;;3.33;1.60;;;30.30;68.10;;;;;;5079200;28;20120;-89
2022/06/17 15:17:48;;;;;;;4.57;1.83;;;30.60;68.10;;;;;;5093417;28;20060;-89
2022/06/17 15:20:36;;;;;;;3.83;1.52;;;30.60;67.90;;;;;;5075239;28;20048;-89
2022/06/17 15:23:21;;;;;;;3.92;1.77;;;30.60;67.60;;;;;;5090695;28;20043;-90
2022/06/17 15:26:18;;;;;;;4.72;1.88;;;30.50;67.20;;;;;;5084331;28;20044;-89
2022/06/17 15:32:05;;;;;;;3.25;1.50;;;30.60;67.20;;;;;;5098495;28;20178;-89